sensor_id;sensor_type;location;lat;lon;timestamp;P1;durP1;ratioP1;P2;durP2;ratioP2
1276;SDS011;631;51.024;13.826;2023-07-29T00:00:41;14.30;;;13.60;;
1276;SDS011;631;51.024;13.826;2023-07-29T00:03:07;13.57;;;12.87;;
1276;SDS011;631;51.024;13.826;2023-07-29T00:05:33;13.57;;;12.87;;
1276;SDS011;631;51.024;13.826;2023-07-29T00:07:59;13.43;;;12.83;;
1276;SDS011;631;51.024;13.826;2023-07-29T00:10:25;13.10;;;12.50;;
1276;SDS011;631;51.024;13.826;2023-07-29T00:12:52;14.03;;;13.33;;
1276;SDS011;631;51.024;13.826;2023-07-29T00:15:17;13.43;;;12.73;;
1276;SDS011;631;51.024;13.826;2023-07-29T00:17:43;12.90;;;12.30;;
1276;SDS011;631;51.024;13.826;2023-07-29T00:20:09;13.50;;;12.80;;
1276;SDS011;631;51.024;13.826;2023-07-29T00:22:34;13.67;;;12.90;;
1276;SDS011;631;51.024;13.826;2023-07-29T00:25:00;13.47;;;12.80;;
1276;SDS011;631;51.024;13.826;2023-07-29T00:27:25;14.10;;;13.30;;
1276;SDS011;631;51.024;13.826;2023-07-29T00:29:51;13.90;;;13.10;;
1276;SDS011;631;51.024;13.826;2023-07-29T00:32:17;12.90;;;12.30;;
1276;SDS011;631;51.024;13.826;2023-07-29T00:34:43;13.00;;;12.30;;
1276;SDS011;631;51.024;13.826;2023-07-29T00:37:09;13.23;;;12.53;;
1276;SDS011;631;51.024;13.826;2023-07-29T00:39:36;13.73;;;12.93;;
1276;SDS011;631;51.024;13.826;2023-07-29T00:42:02;13.10;;;12.50;;
1276;SDS011;631;51.024;13.826;2023-07-29T00:44:28;13.50;;;12.80;;
1276;SDS011;631;51.024;13.826;2023-07-29T00:46:56;12.83;;;12.13;;
1276;SDS011;631;51.024;13.826;2023-07-29T00:49:23;13.67;;;12.97;;
1276;SDS011;631;51.024;13.826;2023-07-29T00:51:49;13.43;;;12.73;;
1276;SDS011;631;51.024;13.826;2023-07-29T00:54:15;12.43;;;11.80;;
1276;SDS011;631;51.024;13.826;2023-07-29T00:56:41;13.03;;;12.17;;
1276;SDS011;631;51.024;13.826;2023-07-29T00:59:07;13.10;;;12.40;;
1276;SDS011;631;51.024;13.826;2023-07-29T01:01:34;13.30;;;12.60;;
1276;SDS011;631;51.024;13.826;2023-07-29T01:04:00;13.53;;;12.83;;
1276;SDS011;631;51.024;13.826;2023-07-29T01:09:14;12.70;;;12.00;;
1276;SDS011;631;51.024;13.826;2023-07-29T01:12:12;12.87;;;12.17;;
1276;SDS011;631;51.024;13.826;2023-07-29T01:15:01;13.07;;;12.47;;
1276;SDS011;631;51.024;13.826;2023-07-29T01:17:33;13.50;;;12.80;;
1276;SDS011;631;51.024;13.826;2023-07-29T01:20:11;12.60;;;11.70;;
1276;SDS011;631;51.024;13.826;2023-07-29T01:22:42;13.07;;;12.37;;
1276;SDS011;631;51.024;13.826;2023-07-29T01:25:08;12.93;;;12.33;;
1276;SDS011;631;51.024;13.826;2023-07-29T01:27:34;13.50;;;12.57;;
1276;SDS011;631;51.024;13.826;2023-07-29T01:30:00;13.00;;;12.30;;
1276;SDS011;631;51.024;13.826;2023-07-29T01:32:29;13.53;;;12.83;;
1276;SDS011;631;51.024;13.826;2023-07-29T01:35:22;13.50;;;12.70;;
1276;SDS011;631;51.024;13.826;2023-07-29T01:37:58;12.43;;;11.73;;
1276;SDS011;631;51.024;13.826;2023-07-29T01:40:34;12.90;;;12.20;;
1276;SDS011;631;51.024;13.826;2023-07-29T01:43:00;12.60;;;11.80;;
1276;SDS011;631;51.024;13.826;2023-07-29T01:45:27;13.10;;;12.23;;
1276;SDS011;631;51.024;13.826;2023-07-29T01:47:56;12.70;;;12.10;;
1276;SDS011;631;51.024;13.826;2023-07-29T01:50:22;13.70;;;12.90;;
1276;SDS011;631;51.024;13.826;2023-07-29T01:52:47;12.70;;;12.00;;
1276;SDS011;631;51.024;13.826;2023-07-29T01:55:13;13.43;;;12.73;;
1276;SDS011;631;51.024;13.826;2023-07-29T01:57:39;12.50;;;11.80;;
1276;SDS011;631;51.024;13.826;2023-07-29T02:00:04;12.60;;;11.90;;
1276;SDS011;631;51.024;13.826;2023-07-29T02:02:31;12.27;;;11.47;;
1276;SDS011;631;51.024;13.826;2023-07-29T02:04:56;13.23;;;12.53;;
1276;SDS011;631;51.024;13.826;2023-07-29T02:07:22;13.10;;;12.30;;
1276;SDS011;631;51.024;13.826;2023-07-29T02:09:47;12.80;;;12.10;;
1276;SDS011;631;51.024;13.826;2023-07-29T02:12:13;12.40;;;11.60;;
1276;SDS011;631;51.024;13.826;2023-07-29T02:14:38;12.20;;;11.50;;
1276;SDS011;631;51.024;13.826;2023-07-29T02:17:04;12.10;;;11.40;;
1276;SDS011;631;51.024;13.826;2023-07-29T02:19:30;12.87;;;12.17;;
1276;SDS011;631;51.024;13.826;2023-07-29T02:21:55;12.70;;;11.90;;
1276;SDS011;631;51.024;13.826;2023-07-29T02:24:21;12.77;;;11.97;;
1276;SDS011;631;51.024;13.826;2023-07-29T02:26:46;12.60;;;11.87;;
1276;SDS011;631;51.024;13.826;2023-07-29T02:29:12;12.50;;;11.80;;
1276;SDS011;631;51.024;13.826;2023-07-29T02:31:38;12.27;;;11.57;;
1276;SDS011;631;51.024;13.826;2023-07-29T02:34:04;12.70;;;12.00;;
1276;SDS011;631;51.024;13.826;2023-07-29T02:36:29;12.80;;;12.10;;
1276;SDS011;631;51.024;13.826;2023-07-29T02:38:55;12.53;;;11.80;;
1276;SDS011;631;51.024;13.826;2023-07-29T02:41:21;12.30;;;11.60;;
1276;SDS011;631;51.024;13.826;2023-07-29T02:43:50;13.00;;;12.30;;
1276;SDS011;631;51.024;13.826;2023-07-29T02:46:16;13.03;;;12.23;;
1276;SDS011;631;51.024;13.826;2023-07-29T02:48:42;12.50;;;11.80;;
1276;SDS011;631;51.024;13.826;2023-07-29T02:51:09;12.80;;;12.07;;
1276;SDS011;631;51.024;13.826;2023-07-29T02:53:34;12.40;;;11.70;;
1276;SDS011;631;51.024;13.826;2023-07-29T02:56:01;12.43;;;11.73;;
1276;SDS011;631;51.024;13.826;2023-07-29T02:58:28;12.50;;;11.90;;
1276;SDS011;631;51.024;13.826;2023-07-29T03:00:59;12.00;;;11.30;;
1276;SDS011;631;51.024;13.826;2023-07-29T03:03:27;12.53;;;11.83;;
1276;SDS011;631;51.024;13.826;2023-07-29T03:06:02;12.40;;;11.70;;
1276;SDS011;631;51.024;13.826;2023-07-29T03:08:29;12.23;;;11.53;;
1276;SDS011;631;51.024;13.826;2023-07-29T03:10:55;11.80;;;11.10;;
1276;SDS011;631;51.024;13.826;2023-07-29T03:13:22;12.90;;;12.20;;
1276;SDS011;631;51.024;13.826;2023-07-29T03:15:47;12.80;;;12.10;;
1276;SDS011;631;51.024;13.826;2023-07-29T03:18:14;12.13;;;11.43;;
1276;SDS011;631;51.024;13.826;2023-07-29T03:20:40;12.00;;;11.40;;
1276;SDS011;631;51.024;13.826;2023-07-29T03:23:05;12.30;;;11.70;;
1276;SDS011;631;51.024;13.826;2023-07-29T03:25:31;12.50;;;11.80;;
1276;SDS011;631;51.024;13.826;2023-07-29T03:27:57;12.40;;;11.80;;
1276;SDS011;631;51.024;13.826;2023-07-29T03:30:22;12.93;;;12.10;;
1276;SDS011;631;51.024;13.826;2023-07-29T03:32:49;11.10;;;10.60;;
1276;SDS011;631;51.024;13.826;2023-07-29T03:35:14;13.13;;;12.33;;
1276;SDS011;631;51.024;13.826;2023-07-29T03:37:40;12.30;;;11.70;;
1276;SDS011;631;51.024;13.826;2023-07-29T03:40:07;12.33;;;11.73;;
1276;SDS011;631;51.024;13.826;2023-07-29T03:42:34;12.00;;;11.40;;
1276;SDS011;631;51.024;13.826;2023-07-29T03:45:00;12.40;;;11.70;;
1276;SDS011;631;51.024;13.826;2023-07-29T03:47:26;11.80;;;11.20;;
1276;SDS011;631;51.024;13.826;2023-07-29T03:49:51;12.60;;;11.53;;
1276;SDS011;631;51.024;13.826;2023-07-29T03:52:17;12.50;;;11.80;;
1276;SDS011;631;51.024;13.826;2023-07-29T03:54:42;13.13;;;12.37;;
1276;SDS011;631;51.024;13.826;2023-07-29T03:57:08;13.40;;;12.60;;
1276;SDS011;631;51.024;13.826;2023-07-29T03:59:34;12.27;;;11.67;;
1276;SDS011;631;51.024;13.826;2023-07-29T04:01:59;12.50;;;11.90;;
1276;SDS011;631;51.024;13.826;2023-07-29T04:04:25;12.00;;;11.40;;
1276;SDS011;631;51.024;13.826;2023-07-29T04:06:51;12.13;;;11.53;;
1276;SDS011;631;51.024;13.826;2023-07-29T04:09:17;12.60;;;11.90;;
1276;SDS011;631;51.024;13.826;2023-07-29T04:11:42;12.40;;;11.80;;
1276;SDS011;631;51.024;13.826;2023-07-29T04:14:08;12.07;;;11.47;;
1276;SDS011;631;51.024;13.826;2023-07-29T04:16:34;12.20;;;11.63;;
1276;SDS011;631;51.024;13.826;2023-07-29T04:18:59;12.10;;;11.50;;
1276;SDS011;631;51.024;13.826;2023-07-29T04:21:25;12.93;;;12.23;;
1276;SDS011;631;51.024;13.826;2023-07-29T04:23:50;12.60;;;12.00;;
1276;SDS011;631;51.024;13.826;2023-07-29T04:26:16;12.20;;;11.60;;
1276;SDS011;631;51.024;13.826;2023-07-29T04:28:42;11.63;;;11.13;;
1276;SDS011;631;51.024;13.826;2023-07-29T04:31:09;11.93;;;11.33;;
1276;SDS011;631;51.024;13.826;2023-07-29T04:33:34;12.60;;;11.97;;
1276;SDS011;631;51.024;13.826;2023-07-29T04:36:00;12.30;;;11.70;;
1276;SDS011;631;51.024;13.826;2023-07-29T04:38:30;12.67;;;12.07;;
1276;SDS011;631;51.024;13.826;2023-07-29T04:40:57;12.30;;;11.70;;
1276;SDS011;631;51.024;13.826;2023-07-29T04:43:35;13.30;;;12.70;;
1276;SDS011;631;51.024;13.826;2023-07-29T04:46:00;12.73;;;12.13;;
1276;SDS011;631;51.024;13.826;2023-07-29T04:48:26;12.70;;;12.10;;
1276;SDS011;631;51.024;13.826;2023-07-29T04:50:51;12.80;;;12.20;;
1276;SDS011;631;51.024;13.826;2023-07-29T04:53:17;12.00;;;11.50;;
1276;SDS011;631;51.024;13.826;2023-07-29T04:55:43;12.70;;;12.07;;
1276;SDS011;631;51.024;13.826;2023-07-29T04:58:09;12.80;;;12.20;;
1276;SDS011;631;51.024;13.826;2023-07-29T05:00:35;12.50;;;11.90;;
1276;SDS011;631;51.024;13.826;2023-07-29T05:03:01;12.30;;;11.60;;
1276;SDS011;631;51.024;13.826;2023-07-29T05:05:26;12.13;;;11.53;;
1276;SDS011;631;51.024;13.826;2023-07-29T05:07:52;12.20;;;11.70;;
1276;SDS011;631;51.024;13.826;2023-07-29T05:10:18;11.47;;;10.97;;
1276;SDS011;631;51.024;13.826;2023-07-29T05:12:44;12.50;;;11.90;;
1276;SDS011;631;51.024;13.826;2023-07-29T05:15:10;11.73;;;11.23;;
1276;SDS011;631;51.024;13.826;2023-07-29T05:17:35;12.30;;;11.70;;
1276;SDS011;631;51.024;13.826;2023-07-29T05:20:01;12.00;;;11.40;;
1276;SDS011;631;51.024;13.826;2023-07-29T05:22:27;11.30;;;10.80;;
1276;SDS011;631;51.024;13.826;2023-07-29T05:24:52;12.10;;;11.47;;
1276;SDS011;631;51.024;13.826;2023-07-29T05:27:18;12.20;;;11.63;;
1276;SDS011;631;51.024;13.826;2023-07-29T05:29:44;12.20;;;11.67;;
1276;SDS011;631;51.024;13.826;2023-07-29T05:32:10;11.70;;;11.20;;
1276;SDS011;631;51.024;13.826;2023-07-29T05:34:35;11.83;;;11.33;;
1276;SDS011;631;51.024;13.826;2023-07-29T05:37:01;12.00;;;11.30;;
1276;SDS011;631;51.024;13.826;2023-07-29T05:39:26;11.70;;;11.10;;
1276;SDS011;631;51.024;13.826;2023-07-29T05:41:52;12.27;;;11.67;;
1276;SDS011;631;51.024;13.826;2023-07-29T05:44:18;11.30;;;10.80;;
1276;SDS011;631;51.024;13.826;2023-07-29T05:46:43;12.00;;;11.37;;
1276;SDS011;631;51.024;13.826;2023-07-29T05:49:09;11.57;;;10.97;;
1276;SDS011;631;51.024;13.826;2023-07-29T05:51:34;11.67;;;11.17;;
1276;SDS011;631;51.024;13.826;2023-07-29T05:54:00;12.93;;;12.23;;
1276;SDS011;631;51.024;13.826;2023-07-29T05:56:26;11.57;;;11.07;;
1276;SDS011;631;51.024;13.826;2023-07-29T05:58:51;11.43;;;10.93;;
1276;SDS011;631;51.024;13.826;2023-07-29T06:01:17;11.20;;;10.70;;
1276;SDS011;631;51.024;13.826;2023-07-29T06:03:46;11.80;;;11.30;;
1276;SDS011;631;51.024;13.826;2023-07-29T06:06:12;11.50;;;11.00;;
1276;SDS011;631;51.024;13.826;2023-07-29T06:08:37;11.97;;;11.20;;
1276;SDS011;631;51.024;13.826;2023-07-29T06:11:03;11.40;;;10.90;;
1276;SDS011;631;51.024;13.826;2023-07-29T06:13:31;11.23;;;10.73;;
1276;SDS011;631;51.024;13.826;2023-07-29T06:15:57;12.00;;;11.30;;
1276;SDS011;631;51.024;13.826;2023-07-29T06:18:22;11.17;;;10.67;;
1276;SDS011;631;51.024;13.826;2023-07-29T06:20:48;11.03;;;10.43;;
1276;SDS011;631;51.024;13.826;2023-07-29T06:23:14;11.80;;;11.27;;
1276;SDS011;631;51.024;13.826;2023-07-29T06:25:39;12.07;;;11.47;;
1276;SDS011;631;51.024;13.826;2023-07-29T06:28:05;11.03;;;10.53;;
1276;SDS011;631;51.024;13.826;2023-07-29T06:30:30;11.77;;;11.27;;
1276;SDS011;631;51.024;13.826;2023-07-29T06:32:56;11.33;;;10.83;;
1276;SDS011;631;51.024;13.826;2023-07-29T06:35:22;12.20;;;11.70;;
1276;SDS011;631;51.024;13.826;2023-07-29T06:37:47;10.70;;;10.20;;
1276;SDS011;631;51.024;13.826;2023-07-29T06:40:13;11.77;;;11.17;;
1276;SDS011;631;51.024;13.826;2023-07-29T06:42:38;10.67;;;10.17;;
1276;SDS011;631;51.024;13.826;2023-07-29T06:45:04;11.80;;;11.20;;
1276;SDS011;631;51.024;13.826;2023-07-29T06:47:31;11.50;;;11.00;;
1276;SDS011;631;51.024;13.826;2023-07-29T06:49:57;11.50;;;10.90;;
1276;SDS011;631;51.024;13.826;2023-07-29T06:52:22;11.13;;;10.73;;
1276;SDS011;631;51.024;13.826;2023-07-29T06:54:48;10.73;;;10.23;;
1276;SDS011;631;51.024;13.826;2023-07-29T06:57:14;11.20;;;10.70;;
1276;SDS011;631;51.024;13.826;2023-07-29T06:59:39;10.57;;;10.17;;
1276;SDS011;631;51.024;13.826;2023-07-29T07:02:06;9.93;;;9.53;;
1276;SDS011;631;51.024;13.826;2023-07-29T07:04:32;10.60;;;10.20;;
1276;SDS011;631;51.024;13.826;2023-07-29T07:06:57;10.30;;;9.90;;
1276;SDS011;631;51.024;13.826;2023-07-29T07:09:23;10.70;;;10.20;;
1276;SDS011;631;51.024;13.826;2023-07-29T07:11:49;10.80;;;10.30;;
1276;SDS011;631;51.024;13.826;2023-07-29T07:14:14;10.57;;;10.17;;
1276;SDS011;631;51.024;13.826;2023-07-29T07:16:40;10.20;;;9.80;;
1276;SDS011;631;51.024;13.826;2023-07-29T07:19:05;10.60;;;10.10;;
1276;SDS011;631;51.024;13.826;2023-07-29T07:21:31;9.90;;;9.50;;
1276;SDS011;631;51.024;13.826;2023-07-29T07:24:00;10.10;;;9.60;;
1276;SDS011;631;51.024;13.826;2023-07-29T07:26:25;10.03;;;9.63;;
1276;SDS011;631;51.024;13.826;2023-07-29T07:28:51;10.27;;;9.87;;
1276;SDS011;631;51.024;13.826;2023-07-29T07:31:16;9.87;;;9.47;;
1276;SDS011;631;51.024;13.826;2023-07-29T07:33:42;9.90;;;9.50;;
1276;SDS011;631;51.024;13.826;2023-07-29T07:36:08;9.90;;;9.50;;
1276;SDS011;631;51.024;13.826;2023-07-29T07:38:33;10.63;;;10.03;;
1276;SDS011;631;51.024;13.826;2023-07-29T07:40:59;10.40;;;10.00;;
1276;SDS011;631;51.024;13.826;2023-07-29T07:43:25;10.53;;;10.13;;
1276;SDS011;631;51.024;13.826;2023-07-29T07:45:51;10.20;;;9.80;;
1276;SDS011;631;51.024;13.826;2023-07-29T07:48:22;9.87;;;9.37;;
1276;SDS011;631;51.024;13.826;2023-07-29T07:50:47;9.83;;;9.43;;
1276;SDS011;631;51.024;13.826;2023-07-29T07:53:13;10.27;;;9.87;;
1276;SDS011;631;51.024;13.826;2023-07-29T07:55:39;9.03;;;8.67;;
1276;SDS011;631;51.024;13.826;2023-07-29T07:58:04;10.03;;;9.63;;
1276;SDS011;631;51.024;13.826;2023-07-29T08:00:30;7.93;;;7.63;;
1276;SDS011;631;51.024;13.826;2023-07-29T08:02:55;9.20;;;8.83;;
1276;SDS011;631;51.024;13.826;2023-07-29T08:05:21;9.70;;;9.30;;
1276;SDS011;631;51.024;13.826;2023-07-29T08:07:46;10.30;;;9.90;;
1276;SDS011;631;51.024;13.826;2023-07-29T08:10:12;10.43;;;10.03;;
1276;SDS011;631;51.024;13.826;2023-07-29T08:12:38;9.50;;;9.10;;
1276;SDS011;631;51.024;13.826;2023-07-29T08:15:03;10.20;;;9.80;;
1276;SDS011;631;51.024;13.826;2023-07-29T08:17:30;10.17;;;9.77;;
1276;SDS011;631;51.024;13.826;2023-07-29T08:19:55;10.03;;;9.63;;
1276;SDS011;631;51.024;13.826;2023-07-29T08:22:21;10.23;;;9.83;;
1276;SDS011;631;51.024;13.826;2023-07-29T08:24:46;10.13;;;9.63;;
1276;SDS011;631;51.024;13.826;2023-07-29T08:27:12;9.80;;;9.40;;
1276;SDS011;631;51.024;13.826;2023-07-29T08:29:38;9.50;;;9.10;;
1276;SDS011;631;51.024;13.826;2023-07-29T08:32:04;10.10;;;9.70;;
1276;SDS011;631;51.024;13.826;2023-07-29T08:34:29;9.30;;;8.90;;
1276;SDS011;631;51.024;13.826;2023-07-29T08:36:55;10.07;;;9.67;;
1276;SDS011;631;51.024;13.826;2023-07-29T08:39:20;9.33;;;9.03;;
1276;SDS011;631;51.024;13.826;2023-07-29T08:41:52;10.20;;;9.80;;
1276;SDS011;631;51.024;13.826;2023-07-29T08:44:30;9.67;;;9.27;;
1276;SDS011;631;51.024;13.826;2023-07-29T08:47:00;9.70;;;9.30;;
1276;SDS011;631;51.024;13.826;2023-07-29T08:49:26;9.77;;;9.37;;
1276;SDS011;631;51.024;13.826;2023-07-29T08:51:53;10.27;;;9.87;;
1276;SDS011;631;51.024;13.826;2023-07-29T08:54:19;10.00;;;9.60;;
1276;SDS011;631;51.024;13.826;2023-07-29T08:56:45;9.03;;;8.70;;
1276;SDS011;631;51.024;13.826;2023-07-29T08:59:11;9.03;;;8.73;;
1276;SDS011;631;51.024;13.826;2023-07-29T09:01:38;9.93;;;9.53;;
1276;SDS011;631;51.024;13.826;2023-07-29T09:04:04;9.20;;;8.90;;
1276;SDS011;631;51.024;13.826;2023-07-29T09:06:30;9.90;;;9.50;;
1276;SDS011;631;51.024;13.826;2023-07-29T09:08:56;9.80;;;9.40;;
1276;SDS011;631;51.024;13.826;2023-07-29T09:11:23;9.73;;;9.33;;
1276;SDS011;631;51.024;13.826;2023-07-29T09:13:49;9.17;;;8.87;;
1276;SDS011;631;51.024;13.826;2023-07-29T09:16:15;9.77;;;9.37;;
1276;SDS011;631;51.024;13.826;2023-07-29T09:18:41;10.33;;;9.83;;
1276;SDS011;631;51.024;13.826;2023-07-29T09:21:07;8.60;;;8.20;;
1276;SDS011;631;51.024;13.826;2023-07-29T09:23:43;9.57;;;9.20;;
1276;SDS011;631;51.024;13.826;2023-07-29T09:26:10;8.97;;;8.67;;
1276;SDS011;631;51.024;13.826;2023-07-29T09:28:37;10.13;;;9.73;;
1276;SDS011;631;51.024;13.826;2023-07-29T09:31:03;9.60;;;9.20;;
1276;SDS011;631;51.024;13.826;2023-07-29T09:33:29;9.60;;;9.20;;
1276;SDS011;631;51.024;13.826;2023-07-29T09:36:00;10.30;;;9.90;;
1276;SDS011;631;51.024;13.826;2023-07-29T09:38:26;10.23;;;9.83;;
1276;SDS011;631;51.024;13.826;2023-07-29T09:40:54;10.10;;;9.60;;
1276;SDS011;631;51.024;13.826;2023-07-29T09:43:21;10.23;;;9.83;;
1276;SDS011;631;51.024;13.826;2023-07-29T09:45:51;10.30;;;9.90;;
1276;SDS011;631;51.024;13.826;2023-07-29T09:48:19;9.73;;;9.33;;
1276;SDS011;631;51.024;13.826;2023-07-29T09:50:47;9.47;;;9.07;;
1276;SDS011;631;51.024;13.826;2023-07-29T09:53:13;10.13;;;9.73;;
1276;SDS011;631;51.024;13.826;2023-07-29T09:55:39;10.53;;;10.13;;
1276;SDS011;631;51.024;13.826;2023-07-29T09:58:10;9.37;;;8.97;;
1276;SDS011;631;51.024;13.826;2023-07-29T10:00:36;9.23;;;8.93;;
1276;SDS011;631;51.024;13.826;2023-07-29T10:03:04;9.80;;;9.30;;
1276;SDS011;631;51.024;13.826;2023-07-29T10:05:30;9.50;;;9.10;;
1276;SDS011;631;51.024;13.826;2023-07-29T10:07:57;10.10;;;9.70;;
1276;SDS011;631;51.024;13.826;2023-07-29T10:10:23;10.07;;;9.67;;
1276;SDS011;631;51.024;13.826;2023-07-29T10:12:49;9.70;;;9.30;;
1276;SDS011;631;51.024;13.826;2023-07-29T10:15:15;10.70;;;10.20;;
1276;SDS011;631;51.024;13.826;2023-07-29T10:17:41;12.37;;;11.87;;
1276;SDS011;631;51.024;13.826;2023-07-29T10:20:10;13.13;;;12.53;;
1276;SDS011;631;51.024;13.826;2023-07-29T10:22:37;13.67;;;12.90;;
1276;SDS011;631;51.024;13.826;2023-07-29T10:25:06;13.63;;;13.03;;
1276;SDS011;631;51.024;13.826;2023-07-29T10:27:40;14.63;;;13.90;;
1276;SDS011;631;51.024;13.826;2023-07-29T10:30:28;13.87;;;13.27;;
1276;SDS011;631;51.024;13.826;2023-07-29T10:32:54;13.50;;;12.87;;
1276;SDS011;631;51.024;13.826;2023-07-29T10:35:23;13.87;;;13.27;;
1276;SDS011;631;51.024;13.826;2023-07-29T10:37:50;13.40;;;12.80;;
1276;SDS011;631;51.024;13.826;2023-07-29T10:40:18;12.53;;;12.03;;
1276;SDS011;631;51.024;13.826;2023-07-29T10:45:51;10.93;;;10.50;;
1276;SDS011;631;51.024;13.826;2023-07-29T10:54:02;10.00;;;9.60;;
1276;SDS011;631;51.024;13.826;2023-07-29T10:56:32;10.00;;;9.60;;
1276;SDS011;631;51.024;13.826;2023-07-29T11:01:37;10.30;;;9.90;;
1276;SDS011;631;51.024;13.826;2023-07-29T11:07:01;10.87;;;10.37;;
1276;SDS011;631;51.024;13.826;2023-07-29T11:17:35;9.60;;;9.20;;
1276;SDS011;631;51.024;13.826;2023-07-29T11:20:04;9.87;;;9.47;;
1276;SDS011;631;51.024;13.826;2023-07-29T11:22:32;9.70;;;9.30;;
1276;SDS011;631;51.024;13.826;2023-07-29T11:24:58;9.50;;;9.10;;
1276;SDS011;631;51.024;13.826;2023-07-29T11:27:23;9.87;;;9.37;;
1276;SDS011;631;51.024;13.826;2023-07-29T11:29:49;9.80;;;9.40;;
1276;SDS011;631;51.024;13.826;2023-07-29T11:32:15;9.53;;;9.13;;
1276;SDS011;631;51.024;13.826;2023-07-29T11:34:42;9.27;;;8.93;;
1276;SDS011;631;51.024;13.826;2023-07-29T11:37:10;9.23;;;8.93;;
1276;SDS011;631;51.024;13.826;2023-07-29T11:39:43;9.40;;;9.00;;
1276;SDS011;631;51.024;13.826;2023-07-29T11:42:10;9.60;;;9.20;;
1276;SDS011;631;51.024;13.826;2023-07-29T11:44:37;9.40;;;9.00;;
1276;SDS011;631;51.024;13.826;2023-07-29T11:47:06;9.37;;;8.87;;
1276;SDS011;631;51.024;13.826;2023-07-29T11:49:35;8.00;;;7.70;;
1276;SDS011;631;51.024;13.826;2023-07-29T11:52:03;9.20;;;8.90;;
1276;SDS011;631;51.024;13.826;2023-07-29T11:54:30;9.97;;;9.57;;
1276;SDS011;631;51.024;13.826;2023-07-29T11:56:56;10.30;;;9.80;;
1276;SDS011;631;51.024;13.826;2023-07-29T11:59:22;9.20;;;8.80;;
1276;SDS011;631;51.024;13.826;2023-07-29T12:01:48;9.47;;;8.87;;
1276;SDS011;631;51.024;13.826;2023-07-29T12:04:14;9.73;;;9.23;;
1276;SDS011;631;51.024;13.826;2023-07-29T12:06:40;8.80;;;8.50;;
1276;SDS011;631;51.024;13.826;2023-07-29T12:09:06;9.13;;;8.73;;
1276;SDS011;631;51.024;13.826;2023-07-29T12:11:34;9.53;;;9.03;;
1276;SDS011;631;51.024;13.826;2023-07-29T12:14:00;9.57;;;9.17;;
1276;SDS011;631;51.024;13.826;2023-07-29T12:16:25;9.77;;;9.27;;
1276;SDS011;631;51.024;13.826;2023-07-29T12:18:51;9.63;;;9.23;;
1276;SDS011;631;51.024;13.826;2023-07-29T12:21:20;9.10;;;8.60;;
1276;SDS011;631;51.024;13.826;2023-07-29T12:23:46;10.43;;;10.03;;
1276;SDS011;631;51.024;13.826;2023-07-29T12:26:12;9.37;;;8.97;;
1276;SDS011;631;51.024;13.826;2023-07-29T12:28:37;9.50;;;9.10;;
1276;SDS011;631;51.024;13.826;2023-07-29T12:31:06;9.30;;;8.90;;
1276;SDS011;631;51.024;13.826;2023-07-29T12:33:34;8.53;;;8.20;;
1276;SDS011;631;51.024;13.826;2023-07-29T12:36:00;9.90;;;9.50;;
1276;SDS011;631;51.024;13.826;2023-07-29T12:38:26;9.27;;;8.97;;
1276;SDS011;631;51.024;13.826;2023-07-29T12:40:53;8.60;;;8.30;;
1276;SDS011;631;51.024;13.826;2023-07-29T12:43:19;9.60;;;9.10;;
1276;SDS011;631;51.024;13.826;2023-07-29T12:45:44;9.57;;;9.17;;
1276;SDS011;631;51.024;13.826;2023-07-29T12:48:10;9.83;;;9.43;;
1276;SDS011;631;51.024;13.826;2023-07-29T12:50:36;10.13;;;9.73;;
1276;SDS011;631;51.024;13.826;2023-07-29T12:53:04;9.70;;;9.20;;
1276;SDS011;631;51.024;13.826;2023-07-29T12:55:30;9.00;;;8.60;;
1276;SDS011;631;51.024;13.826;2023-07-29T12:57:55;9.03;;;8.63;;
1276;SDS011;631;51.024;13.826;2023-07-29T13:00:23;9.70;;;9.30;;
1276;SDS011;631;51.024;13.826;2023-07-29T13:02:48;8.47;;;8.07;;
1276;SDS011;631;51.024;13.826;2023-07-29T13:05:14;9.70;;;9.30;;
1276;SDS011;631;51.024;13.826;2023-07-29T13:07:40;10.00;;;9.60;;
1276;SDS011;631;51.024;13.826;2023-07-29T13:10:06;9.20;;;8.90;;
1276;SDS011;631;51.024;13.826;2023-07-29T13:12:33;9.20;;;8.90;;
1276;SDS011;631;51.024;13.826;2023-07-29T13:14:58;9.93;;;9.53;;
1276;SDS011;631;51.024;13.826;2023-07-29T13:17:24;9.63;;;9.30;;
1276;SDS011;631;51.024;13.826;2023-07-29T13:19:50;9.47;;;9.07;;
1276;SDS011;631;51.024;13.826;2023-07-29T13:22:15;9.93;;;9.53;;
1276;SDS011;631;51.024;13.826;2023-07-29T13:24:41;9.60;;;9.20;;
1276;SDS011;631;51.024;13.826;2023-07-29T13:27:07;9.63;;;9.23;;
1276;SDS011;631;51.024;13.826;2023-07-29T13:29:33;9.63;;;9.23;;
1276;SDS011;631;51.024;13.826;2023-07-29T13:31:58;9.43;;;9.13;;
1276;SDS011;631;51.024;13.826;2023-07-29T13:34:24;10.03;;;9.63;;
1276;SDS011;631;51.024;13.826;2023-07-29T13:36:49;9.53;;;9.13;;
1276;SDS011;631;51.024;13.826;2023-07-29T13:39:15;9.40;;;9.00;;
1276;SDS011;631;51.024;13.826;2023-07-29T13:41:41;9.33;;;8.93;;
1276;SDS011;631;51.024;13.826;2023-07-29T13:44:07;9.30;;;9.00;;
1276;SDS011;631;51.024;13.826;2023-07-29T13:46:32;9.60;;;9.20;;
1276;SDS011;631;51.024;13.826;2023-07-29T13:48:58;9.00;;;8.70;;
1276;SDS011;631;51.024;13.826;2023-07-29T13:51:24;9.27;;;8.97;;
1276;SDS011;631;51.024;13.826;2023-07-29T13:53:49;9.77;;;9.37;;
1276;SDS011;631;51.024;13.826;2023-07-29T13:56:15;9.43;;;9.13;;
1276;SDS011;631;51.024;13.826;2023-07-29T13:58:40;10.00;;;9.60;;
1276;SDS011;631;51.024;13.826;2023-07-29T14:01:06;9.40;;;9.00;;
1276;SDS011;631;51.024;13.826;2023-07-29T14:03:32;7.90;;;7.60;;
1276;SDS011;631;51.024;13.826;2023-07-29T14:05:57;9.20;;;8.80;;
1276;SDS011;631;51.024;13.826;2023-07-29T14:08:23;10.20;;;9.80;;
1276;SDS011;631;51.024;13.826;2023-07-29T14:10:49;8.50;;;8.20;;
1276;SDS011;631;51.024;13.826;2023-07-29T14:13:15;8.90;;;8.60;;
1276;SDS011;631;51.024;13.826;2023-07-29T14:15:40;9.37;;;8.97;;
1276;SDS011;631;51.024;13.826;2023-07-29T14:18:06;9.47;;;9.10;;
1276;SDS011;631;51.024;13.826;2023-07-29T14:20:32;9.10;;;8.80;;
1276;SDS011;631;51.024;13.826;2023-07-29T14:22:58;10.00;;;9.60;;
1276;SDS011;631;51.024;13.826;2023-07-29T14:25:24;9.60;;;9.10;;
1276;SDS011;631;51.024;13.826;2023-07-29T14:27:50;9.20;;;8.90;;
1276;SDS011;631;51.024;13.826;2023-07-29T14:30:15;10.20;;;9.80;;
1276;SDS011;631;51.024;13.826;2023-07-29T14:32:41;9.40;;;9.10;;
1276;SDS011;631;51.024;13.826;2023-07-29T14:35:07;10.20;;;9.80;;
1276;SDS011;631;51.024;13.826;2023-07-29T14:37:33;9.97;;;9.57;;
1276;SDS011;631;51.024;13.826;2023-07-29T14:39:59;10.10;;;9.70;;
1276;SDS011;631;51.024;13.826;2023-07-29T14:42:26;9.60;;;9.20;;
1276;SDS011;631;51.024;13.826;2023-07-29T14:44:52;9.57;;;9.17;;
1276;SDS011;631;51.024;13.826;2023-07-29T14:47:18;9.10;;;8.70;;
1276;SDS011;631;51.024;13.826;2023-07-29T14:49:44;9.40;;;9.00;;
1276;SDS011;631;51.024;13.826;2023-07-29T14:52:10;9.60;;;9.30;;
1276;SDS011;631;51.024;13.826;2023-07-29T14:54:35;9.43;;;9.13;;
1276;SDS011;631;51.024;13.826;2023-07-29T14:57:01;10.03;;;9.63;;
1276;SDS011;631;51.024;13.826;2023-07-29T14:59:27;9.20;;;8.80;;
1276;SDS011;631;51.024;13.826;2023-07-29T15:01:53;9.87;;;9.47;;
1276;SDS011;631;51.024;13.826;2023-07-29T15:04:18;9.40;;;9.10;;
1276;SDS011;631;51.024;13.826;2023-07-29T15:06:44;9.53;;;9.23;;
1276;SDS011;631;51.024;13.826;2023-07-29T15:09:10;9.80;;;9.40;;
1276;SDS011;631;51.024;13.826;2023-07-29T15:11:36;10.30;;;9.90;;
1276;SDS011;631;51.024;13.826;2023-07-29T15:14:02;9.60;;;9.20;;
1276;SDS011;631;51.024;13.826;2023-07-29T15:16:31;9.50;;;9.20;;
1276;SDS011;631;51.024;13.826;2023-07-29T15:18:58;10.53;;;10.13;;